首页
METAR-TAF:

METAR-TAF

机场 :

第聶伯羅彼得羅夫斯克國際機場

第聂伯罗彼得罗夫斯克, 乌克兰

纬度: 48-21-26N, 经度: 035-06-02E, 海拔: 147米

当前天气观测

该预报发布于22分钟前的14:30 UTC
风速17节,风向西南,在南转西南西之间变化
温度 5°C
湿度 75%
气压 1011 hPa
能见度10公里或以上
多云层高于4100英尺

METAR: UKDD 231430Z 23009MPS 200V270 9999 BKN041 05/01 Q1011 R26/090070 TEMPO 23010G15MPS

时间: 16:52 (14:52 UTC)

预报

该预报发布于3小时和51分钟前的11:01 UTC
预报有效从23日的 12点(UTC)到 24日的 12点(UTC)
风速17节,风向西南
能见度10公里或以上
多云层高于700英尺
短暂存在
从 23日的 12点(UTC)到 23日的 18点(UTC)
风速19节,风向西南,有时为29节阵风
能見度: 2100
多云层高于600英尺
多云层高于1500英尺, 积雨云.
小阵雨
从 23日的 1800点(UTC)
风速14节,风向西南,有时为23节阵风
能見度: 3000
多云层高于700英尺
多云层高于2000英尺, 积雨云.
小阵雨, 轻雾
短暂存在
从 23日的 18点(UTC)到 24日的 12点(UTC)
能見度: 1100
多云层高于400英尺
多云层高于1500英尺, 积雨云.
阵雨
短暂存在
从 24日的 06点(UTC)到 24日的 12点(UTC)
风速25节,风向西南,有时为35节阵风

TAF: UKDD 231101Z 2312/2412 22009MPS 9999 BKN007 TX06/2412Z TN02/2405Z TEMPO 2312/2318 23010G15MPS 2100 -SHRA BKN006 BKN015CB FM231800 22007G12MPS 3000 -SHRA BR BKN007 BKN020CB TEMPO 2318/2412 1100 SHRA BKN004 BKN015CB TEMPO 2406/2412 23013G18MPS

超过4000个机场的气象观测和天气预报(METAR&TAF报告)。

可查询的气象台以黄色和红色小点在地图上表示。

将鼠标移到小点上方,可查看气象台名称。

然后点击查看天气观测和预报。

如需切换地图:点击带黑十字的绿色按钮放大地图;点击带横线的绿色按钮缩小地图;或者点击绿色箭头查看邻近地区的地图。


METAR-TAF: